Time;durP1;ratioP1;P1;durP2;ratioP2;P2;SDS_P1;SDS_P2;PMS_P1;PMS_P2;Temp;Humidity;BMP_temperature;BMP_pressure;BME280_temperature;BME280_humidity;BME280_pressure;Samples;Min_cycle;Max_cycle;Signal;HPM_P1;HPM_P2
2022/09/01 00:01:19;;;;;;;1.83;1.40;;;19.40;98.90;;;;;;5075110;28;20126;-63
2022/09/01 00:03:51;;;;;;;2.10;1.40;;;19.40;98.80;;;;;;5075260;28;20048;-63
2022/09/01 00:06:22;;;;;;;1.75;1.33;;;19.30;98.90;;;;;;5075710;28;20450;-65
2022/09/01 00:08:55;;;;;;;2.22;1.60;;;19.30;99.00;;;;;;5075623;28;20042;-65
2022/09/01 00:11:23;;;;;;;2.80;1.75;;;19.40;98.80;;;;;;5075478;28;20442;-64
2022/09/01 00:13:49;;;;;;;3.05;1.60;;;19.40;98.70;;;;;;5075236;28;20036;-64
2022/09/01 00:16:17;;;;;;;3.65;1.73;;;19.40;98.70;;;;;;5075334;28;20056;-64
2022/09/01 00:18:45;;;;;;;1.90;1.60;;;19.50;98.70;;;;;;5075309;28;20522;-65
2022/09/01 00:21:12;;;;;;;3.10;1.50;;;19.60;98.60;;;;;;5075362;28;20087;-64
2022/09/01 00:23:38;;;;;;;2.35;1.70;;;19.50;98.80;;;;;;5075249;28;20040;-63
2022/09/01 00:26:04;;;;;;;1.85;1.42;;;19.50;99.00;;;;;;5075028;28;20475;-63
2022/09/01 00:28:35;;;;;;;2.45;1.40;;;19.50;99.10;;;;;;5074232;28;20040;-64
2022/09/01 00:31:01;;;;;;;3.17;1.75;;;19.50;99.20;;;;;;5075164;28;20103;-63
2022/09/01 00:33:27;;;;;;;1.85;1.52;;;19.30;99.10;;;;;;5074989;28;20554;-64
2022/09/01 00:35:53;;;;;;;1.80;1.33;;;19.40;99.10;;;;;;5075006;28;20042;-65
2022/09/01 00:38:19;;;;;;;3.10;1.60;;;19.50;99.10;;;;;;5074437;28;20048;-65
2022/09/01 00:40:45;;;;;;;1.73;1.40;;;19.50;99.00;;;;;;5074743;28;20121;-64
2022/09/01 00:43:19;;;;;;;2.03;1.50;;;19.40;99.00;;;;;;5074498;28;20143;-64
2022/09/01 00:45:45;;;;;;;2.28;1.83;;;19.40;98.80;;;;;;5073310;28;20044;-64
2022/09/01 00:48:13;;;;;;;2.25;1.30;;;19.40;98.60;;;;;;5074719;28;20067;-64
2022/09/01 00:50:38;;;;;;;1.92;1.23;;;19.50;98.80;;;;;;5074447;28;20051;-64
2022/09/01 00:53:06;;;;;;;1.25;1.15;;;19.40;99.20;;;;;;5074331;28;20036;-63
2022/09/01 00:55:36;;;;;;;1.63;1.33;;;19.50;98.80;;;;;;5074324;28;20044;-64
2022/09/01 00:58:03;;;;;;;1.33;1.20;;;19.50;98.10;;;;;;5074327;28;20040;-63
2022/09/01 01:00:32;;;;;;;1.20;0.90;;;19.50;98.20;;;;;;5074472;28;20032;-64
2022/09/01 01:02:57;;;;;;;0.90;0.80;;;19.50;98.30;;;;;;5074296;28;20048;-65
2022/09/01 01:05:32;;;;;;;2.60;1.23;;;19.40;98.30;;;;;;5074442;28;20067;-65
2022/09/01 01:08:00;;;;;;;2.72;1.30;;;19.40;98.70;;;;;;5074277;28;20044;-64
2022/09/01 01:10:31;;;;;;;2.05;1.80;;;19.40;98.80;;;;;;5074251;28;20522;-63
2022/09/01 01:13:00;;;;;;;2.05;1.38;;;19.30;99.20;;;;;;5073826;28;20392;-65
2022/09/01 01:15:27;;;;;;;1.95;1.55;;;19.10;99.90;;;;;;5074366;28;20041;-65
2022/09/01 01:17:54;;;;;;;4.30;1.67;;;18.90;99.90;;;;;;5074092;28;20043;-65
2022/09/01 01:23:29;;;;;;;2.30;2.10;;;18.90;99.90;;;;;;5073918;28;20416;-66
2022/09/01 01:25:59;;;;;;;3.63;2.00;;;18.80;99.90;;;;;;5074014;28;20395;-66
2022/09/01 01:28:34;;;;;;;3.20;2.00;;;18.70;99.90;;;;;;5073967;28;20040;-64
2022/09/01 01:31:12;;;;;;;5.70;1.85;;;18.60;99.90;;;;;;5073710;28;20075;-63
2022/09/01 01:33:40;;;;;;;2.65;2.28;;;18.70;99.90;;;;;;5073704;28;20075;-64
2022/09/01 01:36:35;;;;;;;2.90;1.80;;;18.60;99.90;;;;;;5073835;28;20041;-63
2022/09/01 01:39:13;;;;;;;3.28;2.20;;;18.60;99.90;;;;;;5074134;28;20043;-64
2022/09/01 01:41:44;;;;;;;2.00;1.63;;;18.50;99.90;;;;;;5073557;28;20047;-64
2022/09/01 01:44:12;;;;;;;2.28;1.90;;;18.50;99.90;;;;;;5073480;28;20574;-63
2022/09/01 01:46:50;;;;;;;2.50;1.98;;;18.50;99.90;;;;;;5073630;28;20398;-65
2022/09/01 01:49:18;;;;;;;2.53;1.90;;;18.50;99.90;;;;;;5073804;28;20055;-63
2022/09/01 01:51:46;;;;;;;3.28;2.05;;;18.60;99.90;;;;;;5073866;28;20471;-64
2022/09/01 01:54:12;;;;;;;2.33;1.95;;;18.60;99.90;;;;;;5074136;28;20037;-64
2022/09/01 01:56:40;;;;;;;3.13;2.05;;;18.50;99.90;;;;;;5073947;28;20067;-66
2022/09/01 01:59:08;;;;;;;5.30;1.90;;;18.40;99.90;;;;;;5073778;28;20040;-65
2022/09/01 02:01:35;;;;;;;2.92;1.90;;;18.30;99.90;;;;;;5073762;28;20062;-66
2022/09/01 02:04:02;;;;;;;3.78;1.90;;;18.40;99.90;;;;;;5073785;28;20055;-64
2022/09/01 02:06:33;;;;;;;2.47;1.90;;;18.40;99.90;;;;;;5073435;28;20040;-64
2022/09/01 02:09:02;;;;;;;3.08;2.00;;;18.40;99.90;;;;;;5073652;28;20040;-64
2022/09/01 02:11:36;;;;;;;5.03;2.03;;;18.40;99.90;;;;;;5074084;28;20040;-65
2022/09/01 02:14:02;;;;;;;2.60;1.98;;;18.40;99.90;;;;;;5070285;28;20075;-64
2022/09/01 02:16:31;;;;;;;3.08;1.90;;;18.40;99.90;;;;;;5052328;28;20510;-64
2022/09/01 02:18:58;;;;;;;1.58;1.30;;;18.30;99.90;;;;;;5052971;28;20032;-64
2022/09/01 02:21:25;;;;;;;2.40;1.80;;;18.40;99.90;;;;;;5053553;28;20045;-64
2022/09/01 02:24:01;;;;;;;2.67;1.30;;;18.40;99.90;;;;;;5053541;28;20053;-64
2022/09/01 02:26:32;;;;;;;2.05;1.50;;;18.30;99.90;;;;;;5057282;28;20073;-65
2022/09/01 02:29:03;;;;;;;2.55;1.80;;;18.50;99.90;;;;;;5057241;28;20052;-66
2022/09/01 02:31:38;;;;;;;2.80;1.60;;;18.60;99.90;;;;;;5055907;28;20041;-64
2022/09/01 02:34:09;;;;;;;1.85;1.40;;;18.70;99.90;;;;;;5056924;28;20041;-64
2022/09/01 02:36:46;;;;;;;5.20;1.70;;;18.70;99.90;;;;;;5057181;28;20047;-64
2022/09/01 02:39:16;;;;;;;4.22;1.80;;;18.70;99.90;;;;;;5057170;28;20104;-65
2022/09/01 02:41:42;;;;;;;2.42;1.60;;;18.70;99.90;;;;;;5057116;28;20404;-64
2022/09/01 02:44:10;;;;;;;1.63;1.30;;;18.70;99.90;;;;;;5056920;28;20063;-64
2022/09/01 02:46:44;;;;;;;3.67;1.63;;;18.50;99.90;;;;;;5057013;28;20036;-65
2022/09/01 02:49:18;;;;;;;1.45;1.17;;;18.30;99.90;;;;;;5056871;28;20048;-65
2022/09/01 02:51:52;;;;;;;2.90;1.50;;;18.30;99.90;;;;;;5056912;28;20401;-64
2022/09/01 02:54:23;;;;;;;1.73;1.50;;;18.20;99.90;;;;;;5056823;28;20037;-64
2022/09/01 02:56:53;;;;;;;2.22;1.60;;;18.30;99.90;;;;;;5056939;28;20112;-64
2022/09/01 02:59:21;;;;;;;1.65;1.40;;;18.30;99.90;;;;;;5056859;28;20049;-64
2022/09/01 03:01:48;;;;;;;1.50;1.17;;;;;;;;;;5056906;28;20067;-64
2022/09/01 03:04:15;;;;;;;2.22;1.67;;;18.00;99.90;;;;;;5056825;28;20053;-65
2022/09/01 03:06:41;;;;;;;3.92;1.38;;;17.80;99.90;;;;;;5056662;28;20033;-65
2022/09/01 03:09:13;;;;;;;2.35;1.27;;;17.90;99.90;;;;;;5056581;28;20056;-64
2022/09/01 03:11:45;;;;;;;1.50;1.15;;;18.00;99.90;;;;;;5056533;28;20071;-65
2022/09/01 03:14:11;;;;;;;2.08;1.50;;;18.00;99.90;;;;;;5056462;28;20041;-64
2022/09/01 03:16:38;;;;;;;2.25;1.30;;;18.10;99.90;;;;;;5056540;28;20393;-64
2022/09/01 03:19:10;;;;;;;2.63;1.67;;;18.10;99.90;;;;;;5056447;28;20489;-64
2022/09/01 03:21:39;;;;;;;5.53;1.15;;;;;;;;;;5075395;28;20119;-64
2022/09/01 03:24:07;;;;;;;1.65;1.30;;;18.10;99.90;;;;;;5076422;28;20052;-64
2022/09/01 03:26:35;;;;;;;3.92;1.38;;;18.00;99.90;;;;;;5076662;28;20032;-63
2022/09/01 03:29:01;;;;;;;2.17;1.52;;;18.00;99.90;;;;;;5076326;28;20040;-63
2022/09/01 03:31:28;;;;;;;1.98;1.30;;;18.00;99.90;;;;;;5076208;28;20043;-63
2022/09/01 03:33:55;;;;;;;2.33;1.50;;;17.70;99.90;;;;;;5075574;28;20123;-64
2022/09/01 03:36:23;;;;;;;2.03;1.50;;;17.70;99.90;;;;;;5075569;28;20127;-63
2022/09/01 03:38:50;;;;;;;2.15;1.40;;;17.70;99.90;;;;;;5076173;28;20048;-64
2022/09/01 03:41:18;;;;;;;3.00;1.65;;;17.50;99.90;;;;;;5076022;28;20461;-63
2022/09/01 03:43:45;;;;;;;2.08;1.33;;;17.60;99.90;;;;;;5076087;28;20048;-63
2022/09/01 03:46:18;;;;;;;1.77;1.33;;;17.80;99.90;;;;;;5075681;28;20032;-64
2022/09/01 03:48:46;;;;;;;1.67;1.35;;;17.90;99.90;;;;;;5075685;28;20036;-63
2022/09/01 03:51:13;;;;;;;2.13;1.48;;;17.90;99.90;;;;;;5075653;28;20119;-63
2022/09/01 03:53:39;;;;;;;3.25;1.38;;;17.90;99.90;;;;;;5075593;28;20079;-63
2022/09/01 03:56:06;;;;;;;1.63;1.30;;;17.80;99.90;;;;;;5075504;28;20495;-63
2022/09/01 03:58:32;;;;;;;3.00;1.58;;;18.00;99.90;;;;;;5075591;28;20499;-64
2022/09/01 04:01:01;;;;;;;2.03;1.40;;;17.90;99.90;;;;;;5075602;28;20039;-63
2022/09/01 04:03:31;;;;;;;1.73;1.50;;;18.00;99.90;;;;;;5075817;28;20408;-64
2022/09/01 04:05:59;;;;;;;2.28;1.55;;;18.00;99.90;;;;;;5075616;28;20086;-63
2022/09/01 04:08:29;;;;;;;1.20;1.10;;;17.90;99.90;;;;;;5075245;28;20044;-65
2022/09/01 04:10:58;;;;;;;1.10;1.00;;;17.60;99.90;;;;;;5075392;28;20041;-64
2022/09/01 04:13:35;;;;;;;1.42;1.05;;;17.50;99.90;;;;;;5075074;28;20434;-64
2022/09/01 04:16:01;;;;;;;2.60;1.25;;;17.60;99.90;;;;;;5075265;28;20468;-64
2022/09/01 04:18:28;;;;;;;1.67;1.33;;;17.50;99.90;;;;;;5075332;28;20025;-63
2022/09/01 04:20:58;;;;;;;2.00;1.38;;;17.50;99.90;;;;;;5075283;28;20089;-65
2022/09/01 04:23:25;;;;;;;1.98;1.38;;;17.50;99.90;;;;;;5075241;28;20052;-65
2022/09/01 04:25:55;;;;;;;3.35;1.40;;;17.50;99.90;;;;;;5074950;28;20047;-64
2022/09/01 04:28:23;;;;;;;1.42;1.10;;;17.40;99.90;;;;;;5074962;28;20041;-65
2022/09/01 04:30:57;;;;;;;1.50;1.00;;;17.50;99.90;;;;;;5075056;28;20047;-65
2022/09/01 04:33:33;;;;;;;1.50;1.08;;;17.50;99.90;;;;;;5074931;28;20040;-65
2022/09/01 04:35:59;;;;;;;2.10;1.55;;;17.70;99.90;;;;;;5074957;28;20131;-63
2022/09/01 04:38:28;;;;;;;2.28;1.60;;;17.50;99.90;;;;;;5074828;28;20075;-65
2022/09/01 04:40:56;;;;;;;1.77;1.58;;;17.40;99.90;;;;;;5074823;28;20041;-64
2022/09/01 04:43:23;;;;;;;1.90;1.30;;;17.50;99.90;;;;;;5074759;28;20058;-64
2022/09/01 04:45:52;;;;;;;1.67;1.30;;;17.60;99.90;;;;;;5074438;28;20500;-63
2022/09/01 04:48:21;;;;;;;3.45;1.73;;;17.70;99.90;;;;;;5073895;28;20052;-64
2022/09/01 04:50:50;;;;;;;5.22;2.38;;;17.70;99.90;;;;;;5074623;28;20422;-64
2022/09/01 04:53:17;;;;;;;5.03;1.50;;;17.60;99.90;;;;;;5074393;28;20040;-65
2022/09/01 04:55:43;;;;;;;1.65;1.40;;;17.50;99.90;;;;;;5074527;28;20047;-65
2022/09/01 04:58:12;;;;;;;2.38;1.52;;;17.50;99.90;;;;;;5074609;28;20040;-64
2022/09/01 05:00:39;;;;;;;2.33;1.50;;;17.50;99.90;;;;;;5073834;28;20395;-64
2022/09/01 05:03:06;;;;;;;2.00;1.70;;;17.30;99.90;;;;;;5073878;28;20052;-64
2022/09/01 05:05:38;;;;;;;4.80;1.80;;;17.20;99.90;;;;;;5083085;28;20125;-64
2022/09/01 05:08:05;;;;;;;2.88;1.80;;;17.20;99.90;;;;;;5070464;28;20040;-64
2022/09/01 05:10:33;;;;;;;5.10;2.10;;;17.10;99.90;;;;;;5074308;28;20048;-65
2022/09/01 05:13:00;;;;;;;3.95;2.08;;;17.00;99.90;;;;;;5073944;28;20056;-64
2022/09/01 05:15:26;;;;;;;3.40;2.20;;;17.00;99.90;;;;;;5074091;28;20090;-64
2022/09/01 05:17:53;;;;;;;2.45;1.95;;;16.90;99.90;;;;;;5074387;28;20425;-64
2022/09/01 05:20:20;;;;;;;3.10;2.30;;;17.00;99.90;;;;;;5074137;28;20067;-64
2022/09/01 05:22:46;;;;;;;2.20;1.67;;;16.90;99.90;;;;;;5073791;28;20123;-64
2022/09/01 05:25:14;;;;;;;2.58;2.10;;;17.00;99.90;;;;;;5074034;28;20517;-63
2022/09/01 05:27:48;;;;;;;4.25;2.45;;;16.90;99.90;;;;;;5074306;28;20052;-64
2022/09/01 05:30:16;;;;;;;3.47;2.38;;;16.90;99.90;;;;;;5074150;28;20044;-64
2022/09/01 05:32:43;;;;;;;4.72;2.20;;;16.90;99.90;;;;;;5072828;28;20467;-65
2022/09/01 05:35:09;;;;;;;3.13;1.92;;;17.00;99.90;;;;;;5074096;28;20043;-64
2022/09/01 05:37:41;;;;;;;3.67;2.47;;;17.00;99.90;;;;;;5072381;28;20032;-64
2022/09/01 05:40:14;;;;;;;4.95;2.13;;;16.90;99.90;;;;;;5073833;28;20056;-65
2022/09/01 05:42:41;;;;;;;5.28;2.00;;;16.80;99.90;;;;;;5073916;28;20503;-64
2022/09/01 05:45:10;;;;;;;3.78;2.58;;;16.80;99.90;;;;;;5073834;28;20047;-64
2022/09/01 05:47:37;;;;;;;3.17;2.47;;;17.00;99.90;;;;;;5073917;28;20043;-64
2022/09/01 05:50:09;;;;;;;2.97;2.17;;;17.10;99.90;;;;;;5074037;28;20052;-64
2022/09/01 05:52:37;;;;;;;5.40;2.75;;;17.00;99.90;;;;;;5074066;28;20353;-64
2022/09/01 05:55:06;;;;;;;2.42;1.85;;;17.00;99.90;;;;;;5073968;28;20036;-64
2022/09/01 05:57:34;;;;;;;3.53;2.40;;;17.30;99.90;;;;;;5073695;28;20112;-64
2022/09/01 06:00:01;;;;;;;3.90;2.25;;;17.50;99.90;;;;;;5075821;28;20032;-64
2022/09/01 06:02:27;;;;;;;3.15;2.20;;;17.50;99.90;;;;;;5077866;28;20071;-64
2022/09/01 06:04:55;;;;;;;4.85;2.53;;;17.70;99.90;;;;;;5077819;28;20452;-63
2022/09/01 06:07:22;;;;;;;6.18;2.53;;;17.80;99.90;;;;;;5077647;28;20120;-64
2022/09/01 06:09:48;;;;;;;4.75;2.00;;;18.20;99.90;;;;;;5077308;28;20036;-64
2022/09/01 06:13:41;;;;;;;2.67;2.15;;;18.40;99.90;;;;;;5108442;27;20135;-63
2022/09/01 06:16:10;;;;;;;2.45;1.92;;;18.50;99.90;;;;;;5110376;28;20517;-64
2022/09/01 06:18:37;;;;;;;5.67;1.97;;;18.70;99.90;;;;;;5111245;28;20047;-63
2022/09/01 06:21:07;;;;;;;2.63;2.10;;;18.80;99.90;;;;;;5090653;28;20282;-63
2022/09/01 06:23:33;;;;;;;2.95;2.28;;;18.90;99.90;;;;;;5091193;28;20046;-63
2022/09/01 06:26:00;;;;;;;3.58;2.08;;;19.40;99.90;;;;;;5091025;28;20041;-63
2022/09/01 06:28:28;;;;;;;2.08;1.80;;;19.30;99.90;;;;;;5090938;28;20044;-63
2022/09/01 06:30:56;;;;;;;3.03;1.98;;;19.20;99.90;;;;;;5091023;28;20400;-63
2022/09/01 06:33:24;;;;;;;2.08;1.73;;;19.10;99.90;;;;;;5091170;28;20105;-63
2022/09/01 06:35:51;;;;;;;3.40;2.05;;;;;;;;;;5090994;28;20039;-64
2022/09/01 06:38:18;;;;;;;2.00;1.80;;;;;;;;;;5090922;28;20040;-63
2022/09/01 06:40:45;;;;;;;2.58;1.80;;;20.20;99.90;;;;;;5090937;28;20037;-63
2022/09/01 06:43:12;;;;;;;4.05;2.13;;;20.30;99.90;;;;;;5091058;28;20097;-64
2022/09/01 06:45:48;;;;;;;2.83;2.22;;;20.40;99.90;;;;;;5090821;28;20047;-64
2022/09/01 06:48:16;;;;;;;2.20;1.58;;;19.40;99.90;;;;;;5090907;28;20052;-63
2022/09/01 06:50:44;;;;;;;2.00;1.67;;;19.50;99.90;;;;;;5090740;28;20040;-64
2022/09/01 06:53:12;;;;;;;4.45;1.83;;;19.90;99.90;;;;;;5090308;28;20040;-64
2022/09/01 06:55:40;;;;;;;2.72;1.58;;;19.60;99.90;;;;;;5090549;28;20047;-63
2022/09/01 06:58:08;;;;;;;2.92;1.83;;;19.50;99.90;;;;;;5090435;28;20512;-64
2022/09/01 07:00:43;;;;;;;2.85;2.15;;;19.80;99.90;;;;;;5090470;28;20039;-64
2022/09/01 07:03:10;;;;;;;2.70;1.95;;;;;;;;;;5090262;28;20051;-63
2022/09/01 07:05:42;;;;;;;3.08;2.25;;;;;;;;;;5090551;28;20040;-63
2022/09/01 07:08:16;;;;;;;4.90;1.50;;;21.70;99.90;;;;;;5090619;28;20143;-63
2022/09/01 07:10:49;;;;;;;3.40;2.10;;;21.70;99.90;;;;;;5090421;28;20085;-64
2022/09/01 07:13:24;;;;;;;2.42;1.60;;;21.90;99.90;;;;;;5090147;28;20094;-64
2022/09/01 07:15:53;;;;;;;2.65;1.88;;;21.70;99.90;;;;;;5090662;28;20064;-63
2022/09/01 07:18:21;;;;;;;4.22;2.20;;;22.00;99.90;;;;;;5090468;28;20044;-63
2022/09/01 07:20:48;;;;;;;3.42;2.17;;;22.00;99.90;;;;;;5090450;28;20115;-63
2022/09/01 07:23:16;;;;;;;2.55;2.15;;;22.20;99.90;;;;;;5086750;28;20602;-63
2022/09/01 07:25:46;;;;;;;2.92;2.20;;;22.40;99.90;;;;;;5077025;28;20051;-64
2022/09/01 07:28:14;;;;;;;5.00;3.15;;;22.30;99.40;;;;;;5076633;28;20040;-65
2022/09/01 07:30:44;;;;;;;2.53;2.17;;;22.20;99.70;;;;;;5076611;28;20045;-64
2022/09/01 07:33:11;;;;;;;2.67;2.20;;;22.40;99.80;;;;;;5076355;28;20052;-63
2022/09/01 07:35:40;;;;;;;2.67;2.10;;;22.70;99.50;;;;;;5076294;28;20274;-64
2022/09/01 07:38:07;;;;;;;5.70;1.90;;;22.50;98.80;;;;;;5076451;28;20040;-65
2022/09/01 07:40:35;;;;;;;5.28;2.33;;;22.80;98.80;;;;;;5076396;28;20150;-63
2022/09/01 07:43:04;;;;;;;4.53;2.20;;;22.70;98.90;;;;;;5076485;28;20511;-63
2022/09/01 07:45:30;;;;;;;2.85;2.15;;;23.10;98.40;;;;;;5076285;28;20100;-63
2022/09/01 07:48:05;;;;;;;2.63;1.60;;;23.30;98.20;;;;;;5074248;28;20537;-63
2022/09/01 07:50:33;;;;;;;5.43;2.30;;;23.10;97.50;;;;;;5064808;28;20037;-64
2022/09/01 07:53:00;;;;;;;3.13;2.30;;;23.30;97.40;;;;;;5056346;28;20156;-64
2022/09/01 07:55:27;;;;;;;2.97;1.95;;;23.40;97.70;;;;;;5074032;28;20039;-63
2022/09/01 07:57:53;;;;;;;4.20;2.10;;;23.50;97.80;;;;;;5072957;28;20049;-64
2022/09/01 08:00:20;;;;;;;3.42;2.50;;;23.70;97.60;;;;;;5055871;28;20118;-64
2022/09/01 08:02:47;;;;;;;2.45;1.90;;;23.90;96.90;;;;;;5064419;28;20048;-65
2022/09/01 08:05:21;;;;;;;5.35;2.10;;;24.00;96.60;;;;;;5055730;28;20040;-63
2022/09/01 08:07:48;;;;;;;2.78;2.03;;;24.00;96.60;;;;;;5054435;28;20527;-65
2022/09/01 08:10:15;;;;;;;2.40;1.77;;;24.30;95.80;;;;;;5055666;28;20804;-64
2022/09/01 08:12:41;;;;;;;3.13;1.90;;;24.60;95.40;;;;;;5055537;28;20412;-63
2022/09/01 08:15:10;;;;;;;2.90;2.00;;;24.70;95.20;;;;;;5055545;28;20048;-65
2022/09/01 08:17:37;;;;;;;2.35;1.90;;;25.00;95.00;;;;;;5055471;28;20045;-64
2022/09/01 08:20:07;;;;;;;4.68;1.98;;;25.10;94.50;;;;;;5055737;28;20037;-64
2022/09/01 08:22:34;;;;;;;3.05;2.08;;;25.10;95.20;;;;;;5056569;28;20393;-66
2022/09/01 08:25:00;;;;;;;2.17;1.83;;;25.00;94.40;;;;;;5075280;28;20127;-66
2022/09/01 08:27:25;;;;;;;4.35;2.05;;;25.00;94.20;;;;;;5075375;28;20040;-65
2022/09/01 08:29:51;;;;;;;3.25;2.00;;;25.20;93.90;;;;;;5075294;28;20107;-64
2022/09/01 08:32:19;;;;;;;2.88;2.05;;;25.50;92.70;;;;;;5075116;28;20094;-64
2022/09/01 08:34:45;;;;;;;1.90;1.60;;;25.50;92.80;;;;;;5074140;28;20034;-65
2022/09/01 08:37:10;;;;;;;4.80;1.58;;;25.40;93.00;;;;;;5073969;28;20040;-64
2022/09/01 08:39:36;;;;;;;2.40;2.08;;;25.80;92.80;;;;;;5073961;28;20036;-64
2022/09/01 08:42:11;;;;;;;2.67;1.80;;;25.90;92.70;;;;;;5075269;28;20105;-64
2022/09/01 08:44:50;;;;;;;2.22;1.90;;;26.00;92.40;;;;;;5072496;28;20527;-63
2022/09/01 08:47:18;;;;;;;2.78;1.70;;;25.40;92.00;;;;;;5056849;28;20438;-63
2022/09/01 08:49:45;;;;;;;2.45;1.92;;;25.10;92.00;;;;;;5052813;28;20183;-63
2022/09/01 08:52:33;;;;;;;2.53;1.80;;;25.10;92.20;;;;;;5053118;28;20045;-64
2022/09/01 08:55:20;;;;;;;3.17;1.90;;;25.40;92.30;;;;;;5052629;28;20043;-63
2022/09/01 08:57:50;;;;;;;2.45;1.60;;;25.50;92.30;;;;;;5053036;28;20079;-63
2022/09/01 09:00:18;;;;;;;2.50;2.10;;;25.50;91.70;;;;;;5052162;28;20098;-63
2022/09/01 09:03:11;;;;;;;2.78;2.05;;;25.40;91.70;;;;;;5052950;28;20076;-63
2022/09/01 09:05:57;;;;;;;4.47;2.28;;;25.90;91.70;;;;;;5052812;28;20033;-63
2022/09/01 09:08:45;;;;;;;3.08;1.95;;;25.60;91.40;;;;;;5052654;28;20431;-63
2022/09/01 09:11:38;;;;;;;2.25;1.67;;;25.90;91.60;;;;;;5066751;28;20124;-63
2022/09/01 09:14:41;;;;;;;3.35;1.85;;;26.20;91.50;;;;;;5050988;28;20545;-64
2022/09/01 09:17:08;;;;;;;2.40;1.80;;;26.50;91.10;;;;;;5051126;28;20377;-64
2022/09/01 09:19:38;;;;;;;3.10;1.52;;;26.60;90.60;;;;;;5051031;28;20404;-64
2022/09/01 09:22:09;;;;;;;2.08;1.88;;;26.70;90.20;;;;;;5052409;28;20124;-64
2022/09/01 09:24:54;;;;;;;2.92;1.83;;;;;;;;;;5052820;28;20091;-64
2022/09/01 09:27:30;;;;;;;3.78;1.75;;;26.80;87.90;;;;;;5052518;28;20045;-63
2022/09/01 09:30:06;;;;;;;2.40;1.90;;;26.30;89.80;;;;;;5051966;28;20095;-63
2022/09/01 09:32:46;;;;;;;2.47;1.50;;;26.20;90.40;;;;;;5053857;28;20049;-63
2022/09/01 09:35:32;;;;;;;2.63;2.13;;;26.30;89.90;;;;;;5054290;28;20496;-63
2022/09/01 09:38:21;;;;;;;2.00;1.50;;;26.20;90.20;;;;;;5068118;28;20151;-63
2022/09/01 09:41:19;;;;;;;7.65;1.85;;;26.30;89.70;;;;;;5052534;28;20040;-63
2022/09/01 09:43:45;;;;;;;2.30;1.60;;;26.30;90.40;;;;;;5051733;28;20067;-63
2022/09/01 09:46:51;;;;;;;2.35;1.65;;;26.80;89.30;;;;;;5051770;28;20040;-63
2022/09/01 09:49:30;;;;;;;2.70;1.63;;;27.30;89.40;;;;;;5051539;28;20043;-64
2022/09/01 09:52:13;;;;;;;2.42;1.90;;;27.40;87.10;;;;;;5050556;28;20041;-63
2022/09/01 09:54:56;;;;;;;2.35;1.63;;;27.40;87.90;;;;;;5053611;28;20048;-63
2022/09/01 09:57:23;;;;;;;1.90;1.70;;;27.20;87.30;;;;;;5052003;28;20032;-64
2022/09/01 09:59:54;;;;;;;5.47;1.67;;;26.40;87.00;;;;;;5051333;28;20534;-63
2022/09/01 10:02:34;;;;;;;3.53;2.00;;;26.20;88.30;;;;;;5051863;28;20116;-64
2022/09/01 10:05:20;;;;;;;4.53;2.28;;;26.40;87.10;;;;;;5051427;28;20041;-63
2022/09/01 10:07:46;;;;;;;2.95;1.92;;;26.00;88.00;;;;;;5051672;28;20064;-63
2022/09/01 10:10:39;;;;;;;3.45;1.92;;;26.50;88.20;;;;;;5050569;28;20103;-63
2022/09/01 10:13:16;;;;;;;2.40;1.67;;;27.20;88.00;;;;;;5052870;28;20053;-63
2022/09/01 10:16:06;;;;;;;3.40;1.98;;;27.40;86.40;;;;;;5054414;28;20033;-64
2022/09/01 10:18:39;;;;;;;2.50;1.53;;;26.80;86.10;;;;;;5054343;28;20048;-64
2022/09/01 10:21:14;;;;;;;2.20;1.70;;;26.30;86.50;;;;;;5071878;28;20408;-63
2022/09/01 10:23:40;;;;;;;2.47;1.52;;;27.10;87.40;;;;;;5072026;28;20099;-65
2022/09/01 10:26:36;;;;;;;1.73;1.48;;;27.60;85.20;;;;;;5071625;28;20496;-65
2022/09/01 10:29:09;;;;;;;1.80;1.50;;;27.20;85.00;;;;;;5067209;28;20492;-64
2022/09/01 10:31:36;;;;;;;2.03;1.83;;;26.70;84.70;;;;;;5072382;28;20044;-65
2022/09/01 10:34:04;;;;;;;2.42;1.60;;;27.00;86.20;;;;;;5073621;28;20036;-64
2022/09/01 10:36:31;;;;;;;2.22;1.42;;;27.00;85.50;;;;;;5071854;28;20032;-65
2022/09/01 10:38:57;;;;;;;2.55;1.70;;;27.10;85.30;;;;;;5071628;28;20446;-65
2022/09/01 10:41:57;;;;;;;1.65;1.42;;;27.40;85.60;;;;;;5060196;28;20041;-66
2022/09/01 10:44:35;;;;;;;4.43;1.92;;;27.70;84.00;;;;;;5028232;28;20036;-65
2022/09/01 10:47:32;;;;;;;4.18;1.70;;;27.80;83.90;;;;;;5050913;28;20535;-66
2022/09/01 10:50:25;;;;;;;3.60;1.98;;;27.60;82.70;;;;;;5051177;28;20048;-64
2022/09/01 10:53:03;;;;;;;5.03;2.40;;;27.40;83.10;;;;;;5051075;28;20114;-64
2022/09/01 10:55:58;;;;;;;4.07;2.22;;;27.10;83.90;;;;;;5050023;28;20064;-63
2022/09/01 10:58:58;;;;;;;2.08;1.85;;;27.00;84.70;;;;;;5057942;28;20127;-63
2022/09/01 11:01:39;;;;;;;1.77;1.65;;;26.20;83.80;;;;;;5070287;28;20044;-63
2022/09/01 11:04:14;;;;;;;3.63;1.73;;;27.20;84.50;;;;;;5074683;28;20046;-63
2022/09/01 11:07:03;;;;;;;2.38;1.98;;;27.10;82.90;;;;;;5075175;28;20060;-63
2022/09/01 11:09:32;;;;;;;2.45;1.50;;;27.70;83.20;;;;;;5074823;28;20036;-63
2022/09/01 11:12:11;;;;;;;2.35;1.90;;;27.60;82.90;;;;;;5074209;28;20071;-63
2022/09/01 11:14:52;;;;;;;1.70;1.60;;;27.50;82.70;;;;;;5074162;28;20040;-64
2022/09/01 11:17:25;;;;;;;2.15;1.60;;;27.60;82.30;;;;;;5075372;28;20037;-63
2022/09/01 11:20:08;;;;;;;2.20;1.83;;;28.00;82.60;;;;;;5075506;28;20123;-64
2022/09/01 11:22:44;;;;;;;3.40;1.92;;;27.50;82.40;;;;;;5074576;28;20105;-63
2022/09/01 11:25:09;;;;;;;2.53;1.60;;;27.50;82.30;;;;;;5074864;28;20095;-63
2022/09/01 11:27:47;;;;;;;2.72;1.65;;;27.20;81.80;;;;;;5074565;28;20170;-65
2022/09/01 11:30:47;;;;;;;2.50;1.65;;;27.00;82.00;;;;;;5074124;28;20047;-63
2022/09/01 11:33:31;;;;;;;1.75;1.50;;;27.20;82.40;;;;;;5069907;28;20090;-64
2022/09/01 11:36:10;;;;;;;3.45;2.25;;;27.70;82.70;;;;;;5074128;28;20082;-64
2022/09/01 11:38:58;;;;;;;2.60;1.92;;;27.70;81.90;;;;;;5074267;28;20047;-63
2022/09/01 11:41:31;;;;;;;2.55;1.80;;;27.30;82.20;;;;;;5073907;28;20038;-64
2022/09/01 11:44:01;;;;;;;1.75;1.55;;;27.30;82.00;;;;;;5073584;28;20067;-64
2022/09/01 11:46:32;;;;;;;3.17;1.70;;;27.50;82.30;;;;;;5072796;28;20089;-64
2022/09/01 11:49:06;;;;;;;4.90;2.15;;;27.20;81.80;;;;;;5071919;28;20445;-65
2022/09/01 11:51:47;;;;;;;2.25;1.95;;;27.20;81.40;;;;;;5073932;28;20036;-65
2022/09/01 11:54:14;;;;;;;1.83;1.63;;;27.30;81.70;;;;;;5073699;28;20460;-65
2022/09/01 11:56:42;;;;;;;3.00;2.35;;;27.00;82.00;;;;;;5074023;28;20497;-64
2022/09/01 11:59:08;;;;;;;5.85;2.00;;;25.90;82.70;;;;;;5072966;28;20525;-65
2022/09/01 12:01:37;;;;;;;2.20;1.58;;;26.30;82.50;;;;;;5073717;28;20233;-65
2022/09/01 12:04:24;;;;;;;2.67;1.80;;;26.80;82.30;;;;;;5074577;28;20032;-64
2022/09/01 12:06:57;;;;;;;2.92;2.00;;;26.90;81.70;;;;;;5075097;28;20041;-65
2022/09/01 12:09:32;;;;;;;2.63;1.95;;;26.90;82.40;;;;;;5073105;28;20036;-65
2022/09/01 12:11:58;;;;;;;2.53;1.95;;;27.00;81.30;;;;;;5073300;28;20040;-65
2022/09/01 12:14:23;;;;;;;3.75;1.80;;;27.30;82.00;;;;;;5073094;28;20048;-65
2022/09/01 12:17:01;;;;;;;2.00;1.80;;;27.50;81.40;;;;;;5073469;28;20082;-64
2022/09/01 12:19:32;;;;;;;2.10;1.67;;;27.70;80.20;;;;;;5073725;28;20080;-64
2022/09/01 12:21:59;;;;;;;2.63;1.88;;;26.70;80.40;;;;;;5073706;28;20036;-64
2022/09/01 12:24:27;;;;;;;2.05;1.60;;;26.80;80.40;;;;;;5073109;28;20064;-64
2022/09/01 12:26:57;;;;;;;2.78;1.70;;;27.00;81.40;;;;;;5073092;28;20499;-64
2022/09/01 12:29:24;;;;;;;2.15;1.90;;;27.30;80.20;;;;;;5072787;28;20041;-64
2022/09/01 12:31:51;;;;;;;2.88;1.95;;;26.70;80.90;;;;;;5073176;28;20512;-65
2022/09/01 12:35:06;;;;;;;2.58;1.63;;;27.30;80.80;;;;;;5071739;28;20032;-63
2022/09/01 12:37:32;;;;;;;2.75;1.80;;;27.10;80.90;;;;;;5062514;28;20483;-63
2022/09/01 12:39:59;;;;;;;3.78;1.70;;;27.00;81.60;;;;;;5073343;28;20051;-63
2022/09/01 12:42:30;;;;;;;3.33;2.13;;;27.00;80.50;;;;;;5075015;28;20040;-64
2022/09/01 12:45:00;;;;;;;2.88;1.90;;;26.50;80.30;;;;;;5073853;28;20515;-64
2022/09/01 12:47:32;;;;;;;3.00;1.87;;;26.60;80.10;;;;;;5073014;28;20049;-64
2022/09/01 12:50:03;;;;;;;2.13;1.73;;;26.50;80.40;;;;;;5072601;28;20559;-63
2022/09/01 12:52:30;;;;;;;3.88;1.88;;;26.60;80.30;;;;;;5073685;28;20073;-63
2022/09/01 12:55:02;;;;;;;2.53;1.80;;;26.90;79.70;;;;;;5072447;28;20033;-63
2022/09/01 12:57:30;;;;;;;3.05;1.80;;;27.30;79.10;;;;;;5067023;28;20442;-64
2022/09/01 13:00:11;;;;;;;6.43;1.77;;;27.50;79.00;;;;;;5063714;28;20563;-65
2022/09/01 13:02:49;;;;;;;2.40;1.70;;;27.50;78.50;;;;;;5067722;28;20032;-65
2022/09/01 13:05:23;;;;;;;1.70;1.60;;;27.50;78.30;;;;;;5070442;28;20361;-65
2022/09/01 13:07:53;;;;;;;3.20;1.92;;;27.30;78.20;;;;;;5070491;28;20032;-64
2022/09/01 13:10:19;;;;;;;2.03;1.45;;;27.40;77.50;;;;;;5070865;28;20504;-65
2022/09/01 13:12:45;;;;;;;4.20;2.00;;;27.40;78.50;;;;;;5064875;28;20127;-65
2022/09/01 13:15:12;;;;;;;3.03;2.10;;;27.50;78.30;;;;;;5064547;28;20178;-66